Time;durP1;ratioP1;P1;durP2;ratioP2;P2;SDS_P1;SDS_P2;PMS_P1;PMS_P2;Temp;Humidity;BMP_temperature;BMP_pressure;BME280_temperature;BME280_humidity;BME280_pressure;Samples;Min_cycle;Max_cycle;Signal;HPM_P1;HPM_P2
2023/07/24 07:53:49;;;;;;;;;;;;;;;6.05;100.00;98675.06;4927963;29;19986;-85
2023/07/24 07:56:14;;;;;;;;;;;;;;;6.03;100.00;98670.78;4921820;29;20394;-93
2023/07/24 07:58:39;;;;;;;;;;;;;;;6.00;100.00;98651.59;4933270;29;20006;-86
2023/07/24 08:01:05;;;;;;;;;;;;;;;6.02;100.00;98671.72;4933843;29;20065;-88
2023/07/24 08:03:30;;;;;;;;;;;;;;;6.05;100.00;98666.31;4916995;29;20026;-87
2023/07/24 08:05:58;;;;;;;;;;;;;;;6.08;100.00;98664.44;4931495;29;19930;-87
2023/07/24 08:08:24;;;;;;;;;;;;;;;6.09;100.00;98652.13;4932356;29;19922;-86
2023/07/24 08:10:49;;;;;;;;;;;;;;;6.12;100.00;98649.38;4932751;29;20373;-86
2023/07/24 08:13:14;;;;;;;;;;;;;;;6.12;100.00;98654.63;4933601;29;19915;-87
2023/07/24 08:15:39;;;;;;;;;;;;;;;6.13;100.00;98666.88;4933502;29;19919;-87
2023/07/24 08:18:06;;;;;;;;;;;;;;;6.13;100.00;98666.88;4927641;29;19919;-86
2023/07/24 08:20:32;;;;;;;;;;;;;;;6.14;100.00;98672.06;4924870;29;20481;-86
2023/07/24 08:22:57;;;;;;;;;;;;;;;6.14;100.00;98682.59;4923601;29;20025;-87
2023/07/24 08:25:22;;;;;;;;;;;;;;;6.17;100.00;98665.78;4931190;29;19922;-87
2023/07/24 08:27:47;;;;;;;;;;;;;;;6.18;100.00;98670.16;4925262;29;19933;-86
2023/07/24 08:30:12;;;;;;;;;;;;;;;6.18;100.00;98665.72;4924899;29;19923;-86
2023/07/24 08:32:39;;;;;;;;;;;;;;;6.17;100.00;98669.31;4927349;29;19923;-86
2023/07/24 08:35:04;;;;;;;;;;;;;;;6.19;100.00;98671.88;4930777;29;19924;-87
2023/07/24 08:37:29;;;;;;;;;;;;;;;6.16;100.00;98664.97;4930347;29;19950;-85
2023/07/24 08:39:55;;;;;;;;;;;;;;;6.16;100.00;98662.31;4929771;29;20286;-85
2023/07/24 08:42:21;;;;;;;;;;;;;;;6.18;100.00;98646.47;4924620;29;19983;-89
2023/07/24 08:44:47;;;;;;;;;;;;;;;6.21;100.00;98651.59;4925178;29;19958;-86
2023/07/24 08:47:13;;;;;;;;;;;;;;;6.23;100.00;98652.38;4915300;29;19954;-85
2023/07/24 08:49:40;;;;;;;;;;;;;;;6.20;100.00;98636.72;4924509;29;19982;-86
2023/07/24 08:52:05;;;;;;;;;;;;;;;6.15;100.00;98628.19;4929176;29;19919;-86
2023/07/24 08:54:32;;;;;;;;;;;;;;;6.19;100.00;98619.25;4932735;29;20375;-86
2023/07/24 08:56:57;;;;;;;;;;;;;;;6.20;100.00;98620.94;4933805;29;19918;-85
2023/07/24 08:59:22;;;;;;;;;;;;;;;6.18;100.00;98618.38;4937608;29;20294;-85
2023/07/24 09:01:48;;;;;;;;;;;;;;;6.16;100.00;98614.97;4920694;29;20389;-85
2023/07/24 09:04:13;;;;;;;;;;;;;;;6.17;100.00;98607.94;4937563;29;19922;-85
2023/07/24 09:06:38;;;;;;;;;;;;;;;6.15;100.00;98596.63;4935441;29;19918;-85
2023/07/24 09:09:12;;;;;;;;;;;;;;;6.13;100.00;98603.75;4936044;29;19930;-87
2023/07/24 09:11:45;;;;;;;;;;;;;;;6.13;100.00;98599.31;4930014;29;19923;-86
2023/07/24 09:14:19;;;;;;;;;;;;;;;6.16;100.00;98598.34;4928028;29;20460;-88
2023/07/24 09:16:44;;;;;;;;;;;;;;;6.16;100.00;98590.47;4921615;29;20363;-87
2023/07/24 09:19:16;;;;;;;;;;;;;;;6.19;100.00;98592.97;4920296;29;19918;-85
2023/07/24 09:21:42;;;;;;;;;;;;;;;6.14;100.00;98603.69;4935284;29;19958;-85
2023/07/24 09:24:11;;;;;;;;;;;;;;;6.18;100.00;98607.03;4911396;29;19919;-87
2023/07/24 09:26:46;;;;;;;;;;;;;;;6.22;100.00;98613.84;4927956;29;19922;-86
2023/07/24 09:29:11;;;;;;;;;;;;;;;6.21;100.00;98612.16;4933100;29;20033;-85
2023/07/24 09:31:36;;;;;;;;;;;;;;;6.18;100.00;98607.03;4919873;29;20822;-87
2023/07/24 09:34:02;;;;;;;;;;;;;;;6.14;100.00;98610.69;4937026;29;19931;-86
2023/07/24 09:36:36;;;;;;;;;;;;;;;6.23;100.00;98606.81;4935600;29;19923;-84
2023/07/24 09:39:06;;;;;;;;;;;;;;;6.25;100.00;98602.34;4927219;29;19923;-86
2023/07/24 09:41:31;;;;;;;;;;;;;;;6.23;100.00;98602.41;4933786;29;19923;-86
2023/07/24 09:43:59;;;;;;;;;;;;;;;6.25;100.00;98599.72;4931810;29;19923;-86
2023/07/24 09:46:24;;;;;;;;;;;;;;;6.24;100.00;98596.25;4927491;29;19986;-85
2023/07/24 09:48:50;;;;;;;;;;;;;;;6.17;100.00;98598.28;4927484;29;20378;-85
2023/07/24 09:51:16;;;;;;;;;;;;;;;6.20;100.00;98588.53;4917751;29;19930;-85
2023/07/24 09:54:00;;;;;;;;;;;;;;;6.18;100.00;98588.59;4926782;29;19973;-86
2023/07/24 09:56:26;;;;;;;;;;;;;;;6.18;100.00;98591.25;4933862;29;19919;-85
2023/07/24 09:58:55;;;;;;;;;;;;;;;6.17;100.00;98597.41;4935829;29;19919;-84
2023/07/24 10:01:20;;;;;;;;;;;;;;;6.18;100.00;98597.34;4922538;29;19919;-84
2023/07/24 10:03:49;;;;;;;;;;;;;;;6.15;100.00;98599.25;4926973;29;19938;-85
2023/07/24 10:06:17;;;;;;;;;;;;;;;6.20;100.00;98602.53;4932202;29;20353;-86
2023/07/24 10:08:43;;;;;;;;;;;;;;;6.21;100.00;98606.00;4913392;29;20367;-87
2023/07/24 10:11:11;;;;;;;;;;;;;;;6.24;100.00;98609.38;4927599;29;20010;-85
2023/07/24 10:13:37;;;;;;;;;;;;;;;6.16;100.00;98608.88;4936265;29;20437;-84
2023/07/24 10:16:06;;;;;;;;;;;;;;;6.08;100.00;98603.06;4913297;29;20367;-84
2023/07/24 10:18:31;;;;;;;;;;;;;;;6.14;100.00;98608.06;4926702;29;19919;-85
2023/07/24 10:21:01;;;;;;;;;;;;;;;6.18;100.00;98615.75;4925585;29;20394;-86
2023/07/24 10:23:26;;;;;;;;;;;;;;;6.18;100.00;98607.03;4932152;29;19977;-85
2023/07/24 10:25:52;;;;;;;;;;;;;;;6.13;100.00;98606.38;4932678;29;19922;-85
2023/07/24 10:28:18;;;;;;;;;;;;;;;6.19;100.00;98603.47;4933646;29;19923;-85
2023/07/24 10:30:44;;;;;;;;;;;;;;;6.17;100.00;98598.28;4934750;29;19930;-85
2023/07/24 10:33:19;;;;;;;;;;;;;;;6.26;100.00;98588.28;4936114;29;19930;-86
2023/07/24 10:35:47;;;;;;;;;;;;;;;6.23;100.00;98577.88;4935848;29;20277;-85
2023/07/24 10:38:13;;;;;;;;;;;;;;;6.23;100.00;98578.72;4934648;29;19973;-86
2023/07/24 10:40:43;;;;;;;;;;;;;;;6.24;100.00;98588.34;4931548;29;19923;-85
2023/07/24 10:43:12;;;;;;;;;;;;;;;6.22;100.00;98584.06;4926094;29;19923;-85
2023/07/24 10:45:41;;;;;;;;;;;;;;;6.19;100.00;98598.22;4933201;29;20302;-86
2023/07/24 10:48:07;;;;;;;;;;;;;;;6.22;100.00;98592.78;4925821;29;19915;-85
2023/07/24 10:50:39;;;;;;;;;;;;;;;6.27;100.00;98600.50;4926116;29;20434;-85
2023/07/24 10:53:05;;;;;;;;;;;;;;;6.29;100.00;98591.63;4930662;29;19979;-85
2023/07/24 10:55:30;;;;;;;;;;;;;;;6.26;100.00;98594.38;4935684;29;20005;-85
2023/07/24 10:57:55;;;;;;;;;;;;;;;6.24;100.00;98606.75;4935908;29;19979;-85
2023/07/24 11:00:20;;;;;;;;;;;;;;;6.24;100.00;98596.25;4935805;29;19923;-91
2023/07/24 11:02:45;;;;;;;;;;;;;;;6.32;100.00;98599.38;4935387;29;20381;-85
2023/07/24 11:05:12;;;;;;;;;;;;;;;6.17;100.00;98579.88;4935483;29;19925;-87
2023/07/24 11:07:37;;;;;;;;;;;;;;;6.17;100.00;98563.22;4933292;29;19969;-87
2023/07/24 11:10:03;;;;;;;;;;;;;;;6.23;100.00;98570.84;4930168;29;19966;-85
2023/07/24 11:12:31;;;;;;;;;;;;;;;6.20;100.00;98575.38;4926289;29;20392;-86
2023/07/24 11:14:58;;;;;;;;;;;;;;;6.19;100.00;98582.44;4925600;29;19922;-87
2023/07/24 11:17:33;;;;;;;;;;;;;;;6.21;100.00;98592.88;4925806;29;19938;-85
2023/07/24 11:20:12;;;;;;;;;;;;;;;6.19;100.00;98582.44;4917202;29;19962;-86
2023/07/24 11:22:38;;;;;;;;;;;;;;;6.19;100.00;98585.06;4926260;29;20419;-86
2023/07/24 11:25:05;;;;;;;;;;;;;;;6.20;100.00;98592.03;4925512;29;19930;-85
2023/07/24 11:27:30;;;;;;;;;;;;;;;6.19;100.00;98608.75;4925937;29;20397;-85
2023/07/24 11:29:55;;;;;;;;;;;;;;;6.19;100.00;98587.69;4925484;29;19919;-86
2023/07/24 11:32:21;;;;;;;;;;;;;;;6.10;100.00;98598.63;4925181;29;19919;-86
2023/07/24 11:34:48;;;;;;;;;;;;;;;6.20;100.00;98602.53;4925603;29;19919;-87
2023/07/24 11:37:13;;;;;;;;;;;;;;;6.26;100.00;98604.06;4928316;29;19922;-85
2023/07/24 11:39:38;;;;;;;;;;;;;;;6.25;100.00;98608.44;4928361;29;19919;-86
2023/07/24 11:42:04;;;;;;;;;;;;;;;6.24;100.00;98605.88;4917863;29;19974;-85
2023/07/24 11:44:30;;;;;;;;;;;;;;;6.26;100.00;98604.91;4934130;29;19938;-86
2023/07/24 11:47:07;;;;;;;;;;;;;;;6.27;100.00;98608.38;4935152;29;20014;-85
2023/07/24 11:49:32;;;;;;;;;;;;;;;6.25;100.00;98613.72;4934824;29;19937;-85
2023/07/24 11:52:02;;;;;;;;;;;;;;;6.27;100.00;98603.13;4933399;29;19926;-85
2023/07/24 11:54:28;;;;;;;;;;;;;;;6.27;100.00;98606.63;4931937;29;19923;-86
2023/07/24 11:56:53;;;;;;;;;;;;;;;6.30;100.00;98608.25;4925123;29;19978;-85
2023/07/24 11:59:19;;;;;;;;;;;;;;;6.30;100.00;98605.63;4932499;29;20410;-85
2023/07/24 12:01:48;;;;;;;;;;;;;;;6.33;100.00;98611.63;4934987;29;19919;-85
2023/07/24 12:04:13;;;;;;;;;;;;;;;6.33;100.00;98597.59;4934239;29;19927;-85
2023/07/24 12:06:39;;;;;;;;;;;;;;;6.33;100.00;98594.97;4930127;29;19926;-86
2023/07/24 12:09:05;;;;;;;;;;;;;;;6.32;100.00;98588.84;4930736;29;19934;-85
2023/07/24 12:11:31;;;;;;;;;;;;;;;6.36;100.00;98590.41;4933009;29;19919;-85
2023/07/24 12:13:56;;;;;;;;;;;;;;;6.36;100.00;98584.31;4934491;29;19919;-85
2023/07/24 12:16:22;;;;;;;;;;;;;;;6.40;100.00;98585.00;4934665;29;19926;-86
2023/07/24 12:18:47;;;;;;;;;;;;;;;6.43;100.00;98587.50;4934242;29;19930;-87
2023/07/24 12:21:12;;;;;;;;;;;;;;;6.48;100.00;98588.19;4925025;29;19931;-87
2023/07/24 12:23:40;;;;;;;;;;;;;;;6.50;100.00;98578.44;4934264;29;19929;-85
2023/07/24 12:26:06;;;;;;;;;;;;;;;6.49;100.00;98585.47;4934658;29;20025;-89
2023/07/24 12:28:31;;;;;;;;;;;;;;;6.50;100.00;98573.16;4934615;29;20388;-85
2023/07/24 12:30:57;;;;;;;;;;;;;;;6.48;100.00;98575.03;4934577;29;19926;-86
2023/07/24 12:33:23;;;;;;;;;;;;;;;6.54;100.00;98566.81;4937122;29;20348;-87
2023/07/24 12:35:49;;;;;;;;;;;;;;;6.49;100.00;98559.16;4938148;29;20010;-86
2023/07/24 12:38:14;;;;;;;;;;;;;;;6.51;100.00;98553.78;4918914;29;20022;-85
2023/07/24 12:40:39;;;;;;;;;;;;;;;6.54;100.00;98556.28;4937960;29;19919;-87
2023/07/24 12:43:05;;;;;;;;;;;;;;;6.53;100.00;98544.91;4938020;29;19919;-86
2023/07/24 12:45:30;;;;;;;;;;;;;;;6.61;100.00;98536.69;4938171;29;19923;-86
2023/07/24 12:47:55;;;;;;;;;;;;;;;6.53;100.00;98533.53;4937887;29;19930;-86
2023/07/24 12:50:22;;;;;;;;;;;;;;;6.61;100.00;98530.56;4937708;29;19919;-85
2023/07/24 12:52:48;;;;;;;;;;;;;;;6.52;100.00;98534.47;4936379;29;19933;-89
2023/07/24 12:55:13;;;;;;;;;;;;;;;6.55;100.00;98534.31;4927721;29;20353;-85
2023/07/24 12:57:38;;;;;;;;;;;;;;;6.54;100.00;98532.59;4924056;29;19926;-87
2023/07/24 13:00:04;;;;;;;;;;;;;;;6.50;100.00;98526.63;4927247;29;19923;-86
2023/07/24 13:02:31;;;;;;;;;;;;;;;6.49;100.00;98537.22;4927573;29;19926;-88
2023/07/24 13:04:56;;;;;;;;;;;;;;;6.58;100.00;98546.50;4928939;29;19930;-87
2023/07/24 13:07:22;;;;;;;;;;;;;;;6.55;100.00;98558.00;4919542;29;20117;-85
2023/07/24 13:09:47;;;;;;;;;;;;;;;6.60;100.00;98566.53;4929640;29;20017;-86
2023/07/24 13:12:12;;;;;;;;;;;;;;;6.60;100.00;98563.06;4927971;29;19930;-87
2023/07/24 13:14:38;;;;;;;;;;;;;;;6.68;100.00;98553.88;4918200;29;19930;-86
2023/07/24 13:17:03;;;;;;;;;;;;;;;6.63;100.00;98562.94;4928072;29;19919;-86
2023/07/24 13:19:29;;;;;;;;;;;;;;;6.59;100.00;98563.97;4928123;29;19958;-86
2023/07/24 13:21:54;;;;;;;;;;;;;;;6.60;100.00;98587.59;4917043;29;19966;-86
2023/07/24 13:24:19;;;;;;;;;;;;;;;6.64;100.00;98572.53;4927621;29;19930;-87
2023/07/24 13:26:44;;;;;;;;;;;;;;;6.62;100.00;98569.97;4927749;29;19925;-86
2023/07/24 13:29:10;;;;;;;;;;;;;;;6.60;100.00;98556.00;4918345;29;19923;-86
2023/07/24 13:31:35;;;;;;;;;;;;;;;6.57;100.00;98564.03;4927660;29;20006;-87
2023/07/24 13:34:00;;;;;;;;;;;;;;;6.62;100.00;98564.72;4927239;29;19930;-87
2023/07/24 13:36:26;;;;;;;;;;;;;;;6.61;100.00;98549.84;4916789;29;19919;-85
2023/07/24 13:38:51;;;;;;;;;;;;;;;6.65;100.00;98554.03;4927594;29;19926;-87
2023/07/24 13:41:17;;;;;;;;;;;;;;;6.58;100.00;98549.13;4927294;29;20381;-86
2023/07/24 13:43:42;;;;;;;;;;;;;;;6.62;100.00;98550.69;4916505;29;19931;-86
2023/07/24 13:46:08;;;;;;;;;;;;;;;6.58;100.00;98549.13;4927420;29;19919;-87
2023/07/24 13:48:33;;;;;;;;;;;;;;;6.62;100.00;98543.66;4927421;29;19979;-87
2023/07/24 13:50:58;;;;;;;;;;;;;;;6.61;100.00;98528.78;4932297;29;19919;-86
2023/07/24 13:53:24;;;;;;;;;;;;;;;6.57;100.00;98537.72;4932795;29;19926;-86
2023/07/24 13:55:50;;;;;;;;;;;;;;;6.59;100.00;98530.63;4935900;29;19923;-86
2023/07/24 13:58:15;;;;;;;;;;;;;;;6.61;100.00;98535.81;4919740;29;19919;-86
2023/07/24 14:00:40;;;;;;;;;;;;;;;6.59;100.00;98535.03;4936883;29;19962;-87
2023/07/24 14:03:06;;;;;;;;;;;;;;;6.63;100.00;98532.19;4936785;29;19947;-87
2023/07/24 14:05:32;;;;;;;;;;;;;;;6.58;100.00;98526.28;4919550;29;20037;-87
2023/07/24 14:07:57;;;;;;;;;;;;;;;6.53;100.00;98523.88;4935337;29;19919;-86
2023/07/24 14:10:23;;;;;;;;;;;;;;;6.53;100.00;98512.50;4936512;29;20021;-86
2023/07/24 14:12:48;;;;;;;;;;;;;;;6.52;100.00;98513.41;4934779;29;20279;-86
2023/07/24 14:15:13;;;;;;;;;;;;;;;6.52;100.00;98526.56;4936508;29;19930;-86
2023/07/24 14:17:38;;;;;;;;;;;;;;;6.49;100.00;98524.06;4936047;29;20389;-86
2023/07/24 14:20:04;;;;;;;;;;;;;;;6.50;100.00;98525.78;4918853;29;20029;-86
2023/07/24 14:22:30;;;;;;;;;;;;;;;6.47;100.00;98518.03;4934706;29;20397;-86
2023/07/24 14:24:55;;;;;;;;;;;;;;;6.50;100.00;98515.25;4936384;29;19925;-86
2023/07/24 14:27:20;;;;;;;;;;;;;;;6.46;100.00;98511.06;4934627;29;19926;-86
2023/07/24 14:29:48;;;;;;;;;;;;;;;6.48;100.00;98519.75;4952907;23;19919;-88
2023/07/24 14:32:15;;;;;;;;;;;;;;;6.46;100.00;98511.94;4946244;28;19931;-91
2023/07/24 14:34:40;;;;;;;;;;;;;;;6.45;100.00;98504.09;4947789;28;20309;-85
2023/07/24 14:37:06;;;;;;;;;;;;;;;6.43;100.00;98508.56;4963412;28;19933;-86
2023/07/24 14:39:31;;;;;;;;;;;;;;;6.38;100.00;98498.25;4964669;28;19919;-85
2023/07/24 14:41:56;;;;;;;;;;;;;;;6.41;100.00;98497.25;4964463;28;20405;-86
2023/07/24 14:44:21;;;;;;;;;;;;;;;6.41;100.00;98486.75;4964711;28;19925;-88
2023/07/24 14:46:47;;;;;;;;;;;;;;;6.40;100.00;98492.91;4947393;28;19918;-87
2023/07/24 14:49:12;;;;;;;;;;;;;;;6.37;100.00;98486.03;4964210;28;19972;-87
2023/07/24 14:51:37;;;;;;;;;;;;;;;6.38;100.00;98489.50;4945849;28;19970;-86
2023/07/24 14:54:02;;;;;;;;;;;;;;;6.45;100.00;98485.69;4963979;28;19981;-87
2023/07/24 14:56:31;;;;;;;;;;;;;;;6.49;100.00;98487.22;4963984;28;19969;-86
2023/07/24 14:58:56;;;;;;;;;;;;;;;6.43;100.00;98483.13;4946918;28;20369;-87
2023/07/24 15:01:21;;;;;;;;;;;;;;;6.44;100.00;98491.88;4964241;28;19961;-86
2023/07/24 15:03:46;;;;;;;;;;;;;;;6.45;100.00;98493.59;4960851;28;20386;-87
2023/07/24 15:06:12;;;;;;;;;;;;;;;6.44;100.00;98492.72;4959361;28;19926;-88
2023/07/24 15:08:37;;;;;;;;;;;;;;;6.44;100.00;98502.38;4961157;28;19930;-87
2023/07/24 15:11:05;;;;;;;;;;;;;;;6.40;100.00;98495.53;4963813;28;20014;-86
2023/07/24 15:13:31;;;;;;;;;;;;;;;6.43;100.00;98496.28;4963956;28;19922;-88
2023/07/24 15:15:56;;;;;;;;;;;;;;;6.39;100.00;98499.13;4962457;28;20393;-86
2023/07/24 15:18:21;;;;;;;;;;;;;;;6.44;100.00;98505.88;4962675;28;19950;-87
2023/07/24 15:20:46;;;;;;;;;;;;;;;6.35;100.00;98507.16;4962061;28;19991;-87
2023/07/24 15:23:13;;;;;;;;;;;;;;;6.30;100.00;98516.16;4962253;28;19922;-86
2023/07/24 15:25:38;;;;;;;;;;;;;;;6.26;100.00;98515.47;4962941;28;19929;-87
2023/07/24 15:28:03;;;;;;;;;;;;;;;6.27;100.00;98511.03;4963561;28;20313;-86
2023/07/24 15:30:29;;;;;;;;;;;;;;;6.25;100.00;98505.00;4962430;28;19926;-86
2023/07/24 15:32:54;;;;;;;;;;;;;;;6.29;100.00;98530.28;4963672;28;19918;-86
2023/07/24 15:35:19;;;;;;;;;;;;;;;6.28;100.00;98537.28;4963324;28;19926;-84
2023/07/24 15:37:44;;;;;;;;;;;;;;;6.22;100.00;98524.41;4961634;28;19969;-90
2023/07/24 15:40:10;;;;;;;;;;;;;;;6.18;100.00;98520.22;4963970;28;19929;-87
2023/07/24 15:42:36;;;;;;;;;;;;;;;6.18;100.00;98520.22;4962511;28;19926;-88
2023/07/24 15:45:01;;;;;;;;;;;;;;;6.17;100.00;98527.28;4963695;28;19918;-86
2023/07/24 15:47:26;;;;;;;;;;;;;;;6.18;100.00;98526.31;4963403;28;20010;-86
2023/07/24 15:49:52;;;;;;;;;;;;;;;6.23;100.00;98526.13;4963501;28;19930;-87
2023/07/24 15:52:17;;;;;;;;;;;;;;;6.32;100.00;98530.97;4945258;28;20379;-84
2023/07/24 15:54:42;;;;;;;;;;;;;;;6.23;100.00;98539.28;4962308;28;19926;-88
2023/07/24 15:57:08;;;;;;;;;;;;;;;6.18;100.00;98539.47;4963966;28;19918;-89
2023/07/24 15:59:33;;;;;;;;;;;;;;;6.18;100.00;98530.75;4963845;28;20017;-85
2023/07/24 16:01:58;;;;;;;;;;;;;;;6.14;100.00;98534.41;4962349;28;19926;-87
2023/07/24 16:04:23;;;;;;;;;;;;;;;6.15;100.00;98530.88;4963290;28;19929;-88
2023/07/24 16:06:51;;;;;;;;;;;;;;;6.18;100.00;98536.00;4961146;28;19918;-86
2023/07/24 16:09:17;;;;;;;;;;;;;;;6.20;100.00;98539.41;4967390;28;19957;-89
2023/07/24 16:11:42;;;;;;;;;;;;;;;6.13;100.00;98541.47;4967237;28;19973;-88
2023/07/24 16:14:07;;;;;;;;;;;;;;;6.18;100.00;98541.25;4963967;28;19923;-87
2023/07/24 16:16:33;;;;;;;;;;;;;;;6.15;100.00;98541.41;4963618;28;19974;-89
2023/07/24 16:19:13;;;;;;;;;;;;;;;6.13;100.00;98546.72;4962883;28;19922;-86
2023/07/24 16:21:38;;;;;;;;;;;;;;;6.08;100.00;98542.56;4965882;28;19922;-88
2023/07/24 16:24:04;;;;;;;;;;;;;;;6.12;100.00;98536.28;4950300;28;19992;-87
2023/07/24 16:26:30;;;;;;;;;;;;;;;6.19;100.00;98535.09;4947680;28;20013;-86
2023/07/24 16:28:57;;;;;;;;;;;;;;;6.13;100.00;98549.34;4966031;28;20389;-86
2023/07/24 16:31:22;;;;;;;;;;;;;;;6.21;100.00;98549.03;4966889;28;20013;-86
2023/07/24 16:33:47;;;;;;;;;;;;;;;6.17;100.00;98539.53;4987294;28;20286;-85
2023/07/24 16:36:12;;;;;;;;;;;;;;;6.12;100.00;98538.91;4984714;28;20100;-88
2023/07/24 16:38:37;;;;;;;;;;;;;;;6.16;100.00;98540.50;4985855;28;19973;-85
2023/07/24 16:41:03;;;;;;;;;;;;;;;6.12;100.00;98538.91;4985660;28;19926;-87
2023/07/24 16:43:28;;;;;;;;;;;;;;;6.13;100.00;98545.88;4984238;28;19928;-86
2023/07/24 16:45:53;;;;;;;;;;;;;;;6.09;100.00;98539.03;4986173;28;19926;-86
2023/07/24 16:48:18;;;;;;;;;;;;;;;6.05;100.00;98545.34;4986177;28;19929;-86
2023/07/24 16:50:44;;;;;;;;;;;;;;;6.07;100.00;98546.16;4986482;28;19922;-85
2023/07/24 16:53:09;;;;;;;;;;;;;;;6.11;100.00;98552.97;4967271;28;20374;-86
2023/07/24 16:55:34;;;;;;;;;;;;;;;6.06;100.00;98550.53;4986969;28;19950;-86
2023/07/24 16:58:00;;;;;;;;;;;;;;;6.04;100.00;98554.16;4985733;28;19942;-85
2023/07/24 17:00:25;;;;;;;;;;;;;;;6.05;100.00;98558.50;4985747;28;20420;-85
2023/07/24 17:02:50;;;;;;;;;;;;;;;6.03;100.00;98561.22;4985974;28;19917;-84
2023/07/24 17:05:15;;;;;;;;;;;;;;;6.06;100.00;98562.84;4985136;28;19976;-86
2023/07/24 17:07:41;;;;;;;;;;;;;;;6.05;100.00;98569.88;4984998;28;19918;-89
2023/07/24 17:10:08;;;;;;;;;;;;;;;6.04;100.00;98570.78;4968607;28;20004;-85
2023/07/24 17:12:33;;;;;;;;;;;;;;;6.03;100.00;98577.00;4983983;28;19929;-85
2023/07/24 17:14:58;;;;;;;;;;;;;;;6.04;100.00;98572.56;4985771;28;19917;-86
2023/07/24 17:17:23;;;;;;;;;;;;;;;6.06;100.00;98576.00;4968231;28;19918;-86
2023/07/24 17:19:49;;;;;;;;;;;;;;;6.05;100.00;98575.16;4984763;28;19922;-91
2023/07/24 17:22:14;;;;;;;;;;;;;;;6.05;100.00;98575.16;4984413;28;19918;-88
2023/07/24 17:24:40;;;;;;;;;;;;;;;6.04;100.00;98570.78;4967829;28;19926;-86
2023/07/24 17:27:05;;;;;;;;;;;;;;;6.06;100.00;98581.25;4983527;28;20074;-85
2023/07/24 17:29:30;;;;;;;;;;;;;;;6.06;100.00;98574.19;4982434;28;20047;-87
2023/07/24 17:31:56;;;;;;;;;;;;;;;6.07;100.00;98577.72;4984967;28;19922;-87
2023/07/24 17:34:21;;;;;;;;;;;;;;;6.01;100.00;98586.69;4964999;28;19922;-87
2023/07/24 17:36:46;;;;;;;;;;;;;;;6.01;100.00;98578.81;4982623;28;19948;-89
2023/07/24 17:39:11;;;;;;;;;;;;;;;6.02;100.00;98587.59;4985011;28;20282;-89
2023/07/24 17:41:37;;;;;;;;;;;;;;;5.98;100.00;98590.34;4984651;28;19961;-86
2023/07/24 17:44:02;;;;;;;;;;;;;;;6.06;100.00;98584.72;4980741;28;19922;-87
2023/07/24 17:46:27;;;;;;;;;;;;;;;6.07;100.00;98589.06;4983531;28;19922;-87
2023/07/24 17:48:52;;;;;;;;;;;;;;;6.00;100.00;98588.50;4986084;28;20266;-87
2023/07/24 17:51:18;;;;;;;;;;;;;;;5.98;100.00;98585.09;4979655;28;19976;-88
2023/07/24 17:53:43;;;;;;;;;;;;;;;5.97;100.00;98587.78;4964942;28;19923;-88
2023/07/24 17:56:08;;;;;;;;;;;;;;;5.97;100.00;98583.34;4984422;28;19957;-88
2023/07/24 17:58:34;;;;;;;;;;;;;;;6.02;100.00;98584.94;4981941;28;19922;-89
2023/07/24 18:00:59;;;;;;;;;;;;;;;6.05;100.00;98587.41;4984105;28;19922;-88
2023/07/24 18:03:24;;;;;;;;;;;;;;;6.16;100.00;98582.56;4985399;28;19918;-86
2023/07/24 18:05:50;;;;;;;;;;;;;;;6.10;100.00;98580.22;4981842;28;19973;-88
2023/07/24 18:08:15;;;;;;;;;;;;;;;6.09;100.00;98583.75;4982824;28;20023;-88
2023/07/24 18:10:40;;;;;;;;;;;;;;;6.04;100.00;98593.63;4981862;28;20005;-86
2023/07/24 18:13:05;;;;;;;;;;;;;;;6.09;100.00;98583.75;4984712;28;19941;-85
2023/07/24 18:15:31;;;;;;;;;;;;;;;6.03;100.00;98584.88;4984938;28;19926;-85
2023/07/24 18:17:56;;;;;;;;;;;;;;;6.03;100.00;98586.63;4966886;28;20267;-84
2023/07/24 18:20:22;;;;;;;;;;;;;;;6.04;100.00;98591.84;4966996;28;19922;-81
2023/07/24 18:22:47;;;;;;;;;;;;;;;6.04;100.00;98588.34;4983554;28;19958;-86
2023/07/24 18:25:12;;;;;;;;;;;;;;;6.03;100.00;98586.63;4985734;28;20366;-86
2023/07/24 18:27:38;;;;;;;;;;;;;;;6.04;100.00;98583.09;4967189;28;19980;-86
2023/07/24 18:30:05;;;;;;;;;;;;;;;6.03;100.00;98587.50;4983949;28;20009;-87
2023/07/24 18:32:30;;;;;;;;;;;;;;;6.07;100.00;98588.22;4965570;28;20406;-88
2023/07/24 18:34:55;;;;;;;;;;;;;;;6.06;100.00;98589.13;4983810;28;19964;-86
2023/07/24 18:37:20;;;;;;;;;;;;;;;6.01;100.00;98584.06;4983607;28;20294;-87
2023/07/24 18:39:46;;;;;;;;;;;;;;;6.04;100.00;98585.72;4966610;28;19918;-87
2023/07/24 18:42:11;;;;;;;;;;;;;;;6.05;100.00;98582.16;4984508;28;19922;-87
2023/07/24 18:44:36;;;;;;;;;;;;;;;6.02;100.00;98590.22;4984497;28;19918;-85
2023/07/24 18:47:01;;;;;;;;;;;;;;;5.98;100.00;98590.34;4967229;28;19957;-86
2023/07/24 18:49:27;;;;;;;;;;;;;;;6.03;100.00;98591.91;4983834;28;19922;-85
2023/07/24 18:51:52;;;;;;;;;;;;;;;6.00;100.00;98592.91;4983622;28;19922;-85
2023/07/24 18:54:18;;;;;;;;;;;;;;;6.01;100.00;98602.47;4965216;28;19977;-84
2023/07/24 18:56:43;;;;;;;;;;;;;;;6.04;100.00;98604.13;4984491;28;19926;-84
2023/07/24 18:59:08;;;;;;;;;;;;;;;6.06;100.00;98599.66;4980677;28;19922;-85
2023/07/24 19:01:33;;;;;;;;;;;;;;;5.99;100.00;98604.34;4966682;28;20758;-84
2023/07/24 19:03:59;;;;;;;;;;;;;;;6.03;100.00;98612.94;4983491;28;19929;-84
2023/07/24 19:06:24;;;;;;;;;;;;;;;6.02;100.00;98616.50;4982215;28;19922;-85
2023/07/24 19:08:49;;;;;;;;;;;;;;;6.00;100.00;98617.41;4966654;28;20324;-85
2023/07/24 19:11:15;;;;;;;;;;;;;;;5.98;100.00;98616.63;4984330;28;19965;-84
2023/07/24 19:13:41;;;;;;;;;;;;;;;5.99;100.00;98623.59;4981216;28;19978;-84
2023/07/24 19:16:06;;;;;;;;;;;;;;;5.97;100.00;98624.59;4965393;28;19922;-88
2023/07/24 19:18:31;;;;;;;;;;;;;;;5.97;100.00;98627.22;4983149;28;19969;-84
2023/07/24 19:20:57;;;;;;;;;;;;;;;5.93;100.00;98634.31;4964278;28;20012;-85
2023/07/24 19:23:22;;;;;;;;;;;;;;;5.96;100.00;98631.59;4983176;28;20009;-85
2023/07/24 19:25:47;;;;;;;;;;;;;;;5.99;100.00;98622.75;4984457;28;19917;-86
2023/07/24 19:28:13;;;;;;;;;;;;;;;5.98;100.00;98629.78;4982404;28;20288;-85
2023/07/24 19:30:38;;;;;;;;;;;;;;;6.00;100.00;98641.09;4965600;28;19926;-84
2023/07/24 19:33:03;;;;;;;;;;;;;;;5.98;100.00;98640.31;4979328;28;19937;-89
2023/07/24 19:35:29;;;;;;;;;;;;;;;6.00;100.00;98650.75;4981554;28;19926;-87
2023/07/24 19:37:54;;;;;;;;;;;;;;;5.97;100.00;98646.47;4978169;28;20317;-87
2023/07/24 19:40:19;;;;;;;;;;;;;;;5.95;100.00;98652.66;4981677;28;19945;-85
2023/07/24 19:42:44;;;;;;;;;;;;;;;5.96;100.00;98655.25;4982631;28;19918;-87
2023/07/24 19:45:10;;;;;;;;;;;;;;;5.96;100.00;98655.25;4965747;28;19972;-86
2023/07/24 19:47:35;;;;;;;;;;;;;;;5.94;100.00;98641.31;4983035;23;19978;-85
2023/07/24 19:50:00;;;;;;;;;;;;;;;5.93;100.00;98647.47;4962798;28;19985;-89
2023/07/24 19:52:27;;;;;;;;;;;;;;;5.96;100.00;98646.50;4962318;28;19985;-85
2023/07/24 19:54:52;;;;;;;;;;;;;;;5.95;100.00;98644.78;4947147;28;19921;-85
2023/07/24 19:57:18;;;;;;;;;;;;;;;6.05;100.00;98650.53;4964022;28;19928;-86
2023/07/24 19:59:43;;;;;;;;;;;;;;;6.05;100.00;98642.63;4963799;28;20005;-86
2023/07/24 20:02:09;;;;;;;;;;;;;;;5.98;100.00;98642.06;4962906;28;19929;-86
2023/07/24 20:04:35;;;;;;;;;;;;;;;5.95;100.00;98645.66;4964505;28;19964;-88
2023/07/24 20:07:00;;;;;;;;;;;;;;;5.96;100.00;98644.75;4963423;28;20355;-89
2023/07/24 20:09:25;;;;;;;;;;;;;;;5.95;100.00;98650.03;4965059;28;20282;-88
2023/07/24 20:11:51;;;;;;;;;;;;;;;5.95;100.00;98661.44;4966374;28;19937;-88
2023/07/24 20:14:16;;;;;;;;;;;;;;;5.98;100.00;98658.72;4963993;28;20017;-88
2023/07/24 20:16:41;;;;;;;;;;;;;;;5.95;100.00;98657.94;4965691;28;19930;-90
2023/07/24 20:19:06;;;;;;;;;;;;;;;5.97;100.00;98659.63;4965529;28;19926;-90
2023/07/24 20:21:34;;;;;;;;;;;;;;;5.98;100.00;98655.19;4963469;28;19926;-87
2023/07/24 20:24:07;;;;;;;;;;;;;;;6.02;100.00;98662.06;4963518;28;20321;-86
2023/07/24 20:26:32;;;;;;;;;;;;;;;5.98;100.00;98663.97;4962586;28;19922;-85
2023/07/24 20:28:57;;;;;;;;;;;;;;;5.94;100.00;98672.84;4960488;28;20290;-89
2023/07/24 20:31:23;;;;;;;;;;;;;;;5.97;100.00;98662.25;4962864;28;19922;-87
2023/07/24 20:33:48;;;;;;;;;;;;;;;5.93;100.00;98663.25;4963497;28;20358;-88